Lu Verne, IA (50560)

7:56 AM CDT on August 28, 2015 (GMT -0500)
KIADAKOT1 | | Change Station
CLOSE
Current Station
Personal Weather Station
Location: Dakota City, IA
Elevation: 1130 ft
Nearby Weather Stations

Elev 1130 ft 42.72 °N, 94.20 °W | Updated 5 minutes ago

Rain
Rain
62.3 °F
Feels Like 62.3 °F
N
2.0
Wind Variable Wind from East
Gusts 2.0 mph

Today
High -- | Low -- °F
--% Chance of Precip.
Yesterday
High -- | Low -- °F
Precip. -- in
6:36 AM 7:58 PM
Waxing Gibbous, 98% visible
Pressure 29.94 in
Visibility 3.0 miles
Clouds Overcast 300 ft
Dew Point 61 °F
Humidity 97%
Rainfall 1.01 in
Snow Depth Not available.
UV 0 out of 12
Pollen 1.10 out of 12
Air Quality Not available.
Flu Activity Not available.
METAR KAXA 281235Z AUTO 09010G16KT 3SM -RA OVC003 17/17 A2994 RMK AO2
Pressure 29.94 in
Visibility 3.0 miles
Clouds Overcast 300 ft
Dew Point 61 °F
Humidity 97%
Rainfall 1.01 in
Snow Depth Not available.
UV 0 out of 12
Pollen 1.10 out of 12
Air Quality Not available.
Flu Activity Not available.
METAR KAXA 281235Z AUTO 09010G16KT 3SM -RA OVC003 17/17 A2994 RMK AO2

10-Day Weather Forecast

×

Almanac

Astronomy

Aug. 28, 2015 Rise Set
Actual Time
Civil Twilight
Nautical Twilight
Astronomical Twilight
Moon
Length of Visible Light
Length of Day
Tomorrow will be .
, % of the Moon is Illuminated

Today's Extremes

State Highs State Lows

Community

WunderPhotos

Upload Photos

1,850,373 photos uploaded!

WunderBlogs® & News

Nearby

Air Quality

  Air Quality AQ Index Pollutant
Not available.

Snow Depth

Station Depth Elevation

Earthquake Activity

City Distance Mag. Time & Date
Minimum magnitude displayed is 2.5.

Coastal Water Temperatures

Place Temperature

Stations

Nearby Weather Stations

Station Location Temp. Windchill Dew Point Humidity Wind Precip. Elev Updated Type